MEL weather

Melbourne International Airport
Melbourne, Victoria, Australia

Public forecast

Using degrees Celsius for public forecast. Weather courtesy of forecast.io.

METAR (pilot weather report)

Retrieved 2017/07/27 19:30 UTC (28 minutes ago):

YMML 271930Z 27008KT 9999 FEW035 SCT050 08/05 Q1016 FM1930 MOD TURB BLW 5000FT TILL 2200

TAF (pilot weather forecast)

Retrieved 2017/07/27 18:00 UTC (2 hours ago):

TAF YMML 271711Z 2718/2824 26012KT 9999 SCT035 FM280800 36008KT CAVOK FM281600 36020G34KT CAVOK FM282000 36028G46KT CAVOK